Western Neb. Rgnl,William B. Heilig Airport Scottsbluff US
ICAO: KBFF
IATA: BFF
Category: Medium
Scheduled Services: Yes

Elevation: 3967 ft
TransAlt. 18000 ft.

Airport Communications:
ASOS:121.025
DENVER CNTR:127.95
COLUMBUS RDO:122.6
CTAF/UNICOM:123

KBFF Zoom In..

If you have problems with the map follow the link
https://www.worldairports.se/pages/airport.php?
ICAO=KBFF

Runways:

(A) RW 05 length 8002 ft width 150 ft
---- / hdg 58

(B) RW 12 length 8279 ft width 150 ft
ILS 110.35 / hdg 126

(C) RW 23 length 8002 ft width 150 ft
---- / hdg 238

(D) RW 30 length 8279 ft width 150 ft
ILS 109.30 / hdg 306

Location; KBFF
Day. 16 / Time. 00.53 Zulu
* Altimeter: 29.94
* Temperature: -09° c. -15.8°f.
* Wind from: 360° Speed 03 kn.
Dewpoint: -10° c.
Visibility: 10 Statute Miles.
Clouds: Clear (automated report).

KBFF 160053Z AUTO 36003KT 10SM CLR M09/M10 A2994 RMK AO2 SLP191 T10891100


Wind From 360°
Speed 03 kn.

 
 
jpsmedia worldairports.se 2019   terms of use